Time;durP1;ratioP1;P1;durP2;ratioP2;P2;SDS_P1;SDS_P2;PMS_P1;PMS_P2;Temp;Humidity;BMP_temperature;BMP_pressure;BME280_temperature;BME280_humidity;BME280_pressure;Samples;Min_cycle;Max_cycle;Signal;HPM_P1;HPM_P2
2023/05/09 00:02:08;;;;;;;32.85;22.27;;;;;;;14.19;100.00;101754.66;5116323;28;20028;-71
2023/05/09 00:04:34;;;;;;;30.85;20.85;;;;;;;14.19;100.00;101738.03;5116226;28;20064;-71
2023/05/09 00:07:00;;;;;;;39.40;22.23;;;;;;;14.15;100.00;101742.50;5115519;28;20076;-71
2023/05/09 00:09:25;;;;;;;35.13;22.02;;;;;;;14.15;100.00;101747.75;5116272;28;20150;-71
2023/05/09 00:11:50;;;;;;;30.67;20.58;;;;;;;14.05;100.00;101733.13;5116086;28;20027;-71
2023/05/09 00:14:17;;;;;;;31.08;22.05;;;;;;;14.09;100.00;101745.25;5115347;28;20035;-71
2023/05/09 00:16:45;;;;;;;33.53;21.23;;;;;;;14.10;100.00;101744.38;5115550;28;20051;-71
2023/05/09 00:19:11;;;;;;;30.98;21.08;;;;;;;14.05;100.00;101730.50;5116285;28;20019;-71
2023/05/09 00:21:37;;;;;;;32.17;20.98;;;;;;;14.09;100.00;101731.28;5115369;28;20030;-71
2023/05/09 00:24:03;;;;;;;29.67;20.42;;;;;;;14.07;100.00;101728.72;5115984;27;20027;-71
2023/05/09 00:26:28;;;;;;;32.05;20.20;;;;;;;14.05;100.00;101727.88;5115974;28;20027;-71
2023/05/09 00:28:53;;;;;;;27.58;19.33;;;;;;;14.05;100.00;101720.88;5114688;28;20020;-71
2023/05/09 00:31:19;;;;;;;28.15;20.20;;;;;;;14.12;100.00;101718.97;5115800;28;20072;-71
2023/05/09 00:33:44;;;;;;;29.40;19.02;;;;;;;14.17;100.00;101724.97;5115460;28;20026;-72
2023/05/09 00:36:10;;;;;;;28.70;18.83;;;;;;;14.16;100.00;101711.88;5114752;28;20020;-71
2023/05/09 00:38:35;;;;;;;29.02;19.10;;;;;;;14.19;100.00;101704.84;5115528;28;20032;-71
2023/05/09 00:41:00;;;;;;;28.13;18.98;;;;;;;14.04;100.00;101692.94;5107312;28;20422;-71
2023/05/09 00:43:26;;;;;;;29.77;19.02;;;;;;;14.14;100.00;101721.56;5106523;28;20077;-71
2023/05/09 00:45:51;;;;;;;28.20;18.42;;;;;;;14.17;100.00;101711.00;5109692;28;20028;-72
2023/05/09 00:48:16;;;;;;;30.67;18.95;;;;;;;14.15;100.00;101718.03;5106659;28;20043;-71
2023/05/09 00:50:42;;;;;;;30.58;18.13;;;;;;;14.10;100.00;101707.66;5114711;28;20055;-71
2023/05/09 00:53:09;;;;;;;27.33;17.90;;;;;;;14.16;100.00;101699.66;5115309;28;20362;-71
2023/05/09 00:55:34;;;;;;;31.23;18.10;;;;;;;14.12;100.00;101697.13;5101083;28;20023;-71
2023/05/09 00:58:01;;;;;;;32.03;18.17;;;;;;;14.18;100.00;101700.47;5114163;28;20089;-71
2023/05/09 01:00:27;;;;;;;28.10;18.58;;;;;;;14.14;100.00;101685.72;5115274;28;20028;-71
2023/05/09 01:02:55;;;;;;;27.88;18.63;;;;;;;14.12;100.00;101695.38;5114640;28;20023;-71
2023/05/09 01:05:27;;;;;;;24.33;16.63;;;;;;;14.08;100.00;101678.00;5114350;28;20409;-71
2023/05/09 01:08:16;;;;;;;26.90;16.90;;;;;;;14.10;100.00;101684.06;5113478;28;20047;-71
2023/05/09 01:10:55;;;;;;;27.48;16.85;;;;;;;14.06;100.00;101671.94;5104732;28;20066;-71
2023/05/09 01:13:28;;;;;;;23.58;16.33;;;;;;;14.05;100.00;101675.44;5114824;27;20031;-72
2023/05/09 01:16:09;;;;;;;23.60;16.50;;;;;;;14.02;100.00;101672.91;5114697;28;20044;-71
2023/05/09 01:18:59;;;;;;;23.92;16.08;;;;;;;14.05;100.00;101667.56;5114499;28;20051;-71
2023/05/09 01:21:30;;;;;;;27.00;16.60;;;;;;;14.08;100.00;101661.41;5114604;28;20024;-72
2023/05/09 01:24:08;;;;;;;22.10;15.65;;;;;;;14.10;100.00;101655.22;5114813;28;20024;-71
2023/05/09 01:27:21;;;;;;;23.23;15.18;;;;;;;14.15;100.00;101647.25;5114882;28;20024;-72
2023/05/09 01:29:50;;;;;;;21.90;15.45;;;;;;;14.13;100.00;101649.06;5114339;28;20027;-72
2023/05/09 01:32:19;;;;;;;23.83;15.70;;;;;;;14.05;100.00;101641.38;5113977;28;20027;-71
2023/05/09 01:34:46;;;;;;;21.83;15.82;;;;;;;14.05;100.00;101647.47;5114617;28;20115;-71
2023/05/09 01:37:18;;;;;;;24.25;16.55;;;;;;;14.05;100.00;101644.84;5114727;28;20031;-71
2023/05/09 01:39:49;;;;;;;22.52;15.73;;;;;;;14.02;100.00;101636.19;5113574;28;20023;-71
2023/05/09 01:42:17;;;;;;;22.30;15.15;;;;;;;13.99;100.00;101638.88;5112451;28;20019;-71
2023/05/09 01:44:45;;;;;;;22.85;15.65;;;;;;;14.01;100.00;101624.00;5114147;28;20495;-71
2023/05/09 01:47:10;;;;;;;24.42;16.35;;;;;;;14.00;100.00;101622.28;5113784;28;20027;-71
2023/05/09 01:49:38;;;;;;;22.38;16.33;;;;;;;14.00;100.00;101617.91;5114436;28;20394;-71
2023/05/09 01:52:08;;;;;;;27.92;16.88;;;;;;;13.95;100.00;101614.50;5113047;28;20055;-71
2023/05/09 01:54:35;;;;;;;22.98;16.00;;;;;;;13.89;100.00;101619.06;5113499;28;20019;-71
2023/05/09 01:57:02;;;;;;;27.15;16.85;;;;;;;13.84;100.00;101613.09;5113745;28;20023;-72
2023/05/09 01:59:28;;;;;;;23.77;16.58;;;;;;;13.87;100.00;101605.16;5113560;28;20069;-71
2023/05/09 02:01:55;;;;;;;25.02;16.15;;;;;;;13.84;100.00;101613.09;5113951;28;20027;-71
2023/05/09 02:04:20;;;;;;;21.90;16.63;;;;;;;13.81;100.00;101609.63;5113923;28;20049;-71
2023/05/09 02:06:51;;;;;;;30.95;18.02;;;;;;;13.81;100.00;101601.75;5112983;28;20114;-72
2023/05/09 02:09:20;;;;;;;24.33;16.38;;;;;;;13.77;100.00;101604.50;5113788;28;20118;-71
2023/05/09 02:11:46;;;;;;;23.83;16.73;;;;;;;13.75;100.00;101596.66;5113348;28;20347;-71
2023/05/09 02:14:14;;;;;;;28.52;16.67;;;;;;;13.73;100.00;101590.63;5113316;28;20027;-71
2023/05/09 02:16:40;;;;;;;27.55;17.73;;;;;;;13.77;100.00;101601.88;5085069;28;20040;-71
2023/05/09 02:19:05;;;;;;;24.45;17.02;;;;;;;13.56;100.00;101588.38;5113623;28;20130;-71
2023/05/09 02:21:31;;;;;;;24.92;15.93;;;;;;;13.67;100.00;101616.09;5112949;28;20019;-71
2023/05/09 02:23:57;;;;;;;24.73;17.25;;;;;;;13.58;100.00;101622.41;5113343;28;20517;-72
2023/05/09 02:26:24;;;;;;;26.42;17.10;;;;;;;13.59;100.00;101611.91;5113686;28;20027;-72
2023/05/09 02:28:50;;;;;;;21.75;16.23;;;;;;;13.58;100.00;101611.94;5112491;28;20034;-71
2023/05/09 02:31:19;;;;;;;26.75;16.65;;;;;;;13.58;100.00;101619.81;5113393;28;20039;-72
2023/05/09 02:33:46;;;;;;;27.02;17.30;;;;;;;13.46;100.00;101609.59;5106933;28;20070;-71
2023/05/09 02:36:13;;;;;;;24.35;17.17;;;;;;;13.53;100.00;101616.41;5105500;28;20031;-71
2023/05/09 02:38:40;;;;;;;26.95;16.98;;;;;;;13.49;100.00;101612.16;5112966;28;20020;-72
2023/05/09 02:41:06;;;;;;;27.90;17.45;;;;;;;13.50;100.00;101621.72;5103490;28;20027;-71
2023/05/09 02:43:31;;;;;;;23.25;17.40;;;;;;;13.43;100.00;101607.91;5109806;28;20020;-71
2023/05/09 02:45:56;;;;;;;26.60;16.63;;;;;;;13.47;100.00;101600.84;5112937;28;20464;-71
2023/05/09 02:48:22;;;;;;;26.00;16.92;;;;;;;13.46;100.00;101601.75;5113223;28;20134;-71
2023/05/09 02:50:47;;;;;;;28.00;17.13;;;;;;;13.37;100.00;101586.25;5112335;28;20375;-71
2023/05/09 02:53:12;;;;;;;30.02;17.98;;;;;;;13.40;100.00;101596.66;5113524;28;20016;-71
2023/05/09 02:55:37;;;;;;;28.45;18.90;;;;;;;13.25;100.00;101574.31;5111860;28;20011;-71
2023/05/09 02:58:03;;;;;;;30.17;17.90;;;;;;;13.37;100.00;101589.72;5112966;28;20024;-71
2023/05/09 03:00:28;;;;;;;25.60;17.60;;;;;;;13.32;100.00;101574.13;5113461;28;20038;-71
2023/05/09 03:02:54;;;;;;;28.95;17.98;;;;;;;13.33;100.00;101581.06;5111546;28;20015;-71
2023/05/09 03:05:20;;;;;;;27.08;16.85;;;;;;;13.33;100.00;101578.44;5113376;28;20020;-71
2023/05/09 03:07:45;;;;;;;29.67;18.50;;;;;;;13.34;100.00;101580.19;5112709;28;20501;-71
2023/05/09 03:10:11;;;;;;;29.42;19.33;;;;;;;13.31;100.00;101575.03;5112128;28;20030;-71
2023/05/09 03:12:37;;;;;;;31.02;19.05;;;;;;;13.33;100.00;101561.88;5113030;28;20036;-71
2023/05/09 03:15:05;;;;;;;28.55;17.52;;;;;;;13.33;100.00;101567.13;5113066;28;20028;-71
2023/05/09 03:17:30;;;;;;;29.20;18.50;;;;;;;13.33;100.00;101567.13;5112120;28;20044;-72
2023/05/09 03:19:55;;;;;;;27.20;18.05;;;;;;;13.33;100.00;101562.75;5112618;28;20555;-71
2023/05/09 03:22:21;;;;;;;32.45;18.45;;;;;;;13.31;100.00;101566.31;5112796;28;20477;-71
2023/05/09 03:24:46;;;;;;;26.58;18.08;;;;;;;13.37;100.00;101560.06;5111772;28;20031;-71
2023/05/09 03:27:11;;;;;;;27.92;18.67;;;;;;;13.36;100.00;101556.56;5113122;28;20117;-71
2023/05/09 03:29:37;;;;;;;30.15;18.42;;;;;;;13.38;100.00;101560.03;5098184;28;20024;-71
2023/05/09 03:32:02;;;;;;;28.17;17.98;;;;;;;13.34;100.00;101559.25;5112014;28;20058;-71
2023/05/09 03:34:27;;;;;;;26.42;17.92;;;;;;;13.35;100.00;101565.34;5112746;28;20030;-71
2023/05/09 03:36:53;;;;;;;30.45;18.60;;;;;;;13.35;100.00;101560.09;5112335;28;20031;-71
2023/05/09 03:39:18;;;;;;;28.33;18.13;;;;;;;13.29;100.00;101544.53;5111990;28;20019;-71
2023/05/09 03:41:43;;;;;;;29.70;18.25;;;;;;;13.28;100.00;101554.16;5098151;28;20371;-71
2023/05/09 03:44:08;;;;;;;28.73;19.17;;;;;;;13.28;100.00;101554.16;5100591;28;20462;-71
2023/05/09 03:46:34;;;;;;;28.35;17.55;;;;;;;13.26;100.00;101548.06;5112017;28;20024;-71
2023/05/09 03:48:59;;;;;;;27.33;18.83;;;;;;;13.29;100.00;101540.16;5112179;28;20024;-71
2023/05/09 03:51:25;;;;;;;26.45;18.45;;;;;;;13.30;100.00;101544.47;5112790;28;20024;-71
2023/05/09 03:53:50;;;;;;;30.60;19.08;;;;;;;13.29;100.00;101539.28;5111372;28;20486;-71
2023/05/09 03:56:16;;;;;;;27.35;17.42;;;;;;;13.25;100.00;101532.41;5112627;28;20023;-71
2023/05/09 03:58:41;;;;;;;27.15;17.50;;;;;;;13.27;100.00;101535.84;5112587;28;20055;-71
2023/05/09 04:01:06;;;;;;;25.30;18.00;;;;;;;13.26;100.00;101534.13;5111776;28;20035;-71
2023/05/09 04:03:32;;;;;;;26.13;16.88;;;;;;;13.24;100.00;101531.56;5112843;28;20098;-71
2023/05/09 04:05:57;;;;;;;27.58;17.85;;;;;;;13.23;100.00;101521.94;5111211;28;20024;-71
2023/05/09 04:08:22;;;;;;;24.90;17.58;;;;;;;13.24;100.00;101514.94;5112521;28;20028;-71
2023/05/09 04:10:49;;;;;;;31.70;20.05;;;;;;;13.27;100.00;101514.88;5111996;28;20114;-71
2023/05/09 04:13:15;;;;;;;23.95;17.60;;;;;;;13.27;100.00;101505.28;5111909;28;20100;-71
2023/05/09 04:15:43;;;;;;;26.60;17.33;;;;;;;13.27;100.00;101514.88;5115331;28;20040;-72
2023/05/09 04:18:08;;;;;;;26.42;16.92;;;;;;;13.24;100.00;101507.06;5116283;28;20076;-71
2023/05/09 04:20:33;;;;;;;27.67;16.63;;;;;;;13.26;100.00;101503.56;5115621;28;20035;-71
2023/05/09 04:22:59;;;;;;;25.58;15.85;;;;;;;13.26;100.00;101497.47;5115411;28;20027;-71
2023/05/09 04:25:24;;;;;;;23.90;15.57;;;;;;;13.29;100.00;101510.50;5115910;28;20027;-71
2023/05/09 04:27:50;;;;;;;26.00;15.30;;;;;;;13.17;100.00;101498.50;5115214;28;20034;-72
2023/05/09 04:30:16;;;;;;;20.60;14.95;;;;;;;13.28;100.00;101501.78;5115975;28;20144;-71
2023/05/09 04:32:45;;;;;;;21.02;14.80;;;;;;;13.34;100.00;101505.97;5115834;27;20034;-71
2023/05/09 04:35:13;;;;;;;21.08;14.82;;;;;;;13.31;100.00;101500.84;5114969;28;20027;-71
2023/05/09 04:37:38;;;;;;;20.35;14.02;;;;;;;13.39;100.00;101505.88;5115380;27;20131;-72
2023/05/09 04:40:04;;;;;;;23.98;14.13;;;;;;;13.37;100.00;101498.06;5115629;28;20063;-71
2023/05/09 04:42:32;;;;;;;21.33;14.25;;;;;;;13.43;100.00;101497.06;5095196;28;20035;-71
2023/05/09 04:45:00;;;;;;;19.65;12.82;;;;;;;13.52;100.00;101504.69;5110115;28;20035;-71
2023/05/09 04:47:26;;;;;;;22.88;14.43;;;;;;;13.54;100.00;101495.03;5115924;28;20039;-71
2023/05/09 04:49:51;;;;;;;19.58;13.68;;;;;;;13.60;100.00;101497.47;5114388;28;20498;-71
2023/05/09 04:52:17;;;;;;;18.73;13.90;;;;;;;13.69;100.00;101492.00;5115569;28;20374;-72
2023/05/09 04:54:42;;;;;;;23.00;14.35;;;;;;;13.77;100.00;101479.56;5115199;27;20062;-71
2023/05/09 04:57:08;;;;;;;19.92;14.82;;;;;;;13.80;100.00;101476.88;5114637;28;20019;-71
2023/05/09 04:59:34;;;;;;;20.60;14.52;;;;;;;13.85;100.00;101479.34;5115348;28;20012;-71
2023/05/09 05:01:59;;;;;;;19.10;13.57;;;;;;;13.91;100.00;101471.34;5115121;28;20428;-71
2023/05/09 05:04:24;;;;;;;19.13;14.35;;;;;;;13.90;100.00;101468.78;5114234;28;20026;-72
2023/05/09 05:06:49;;;;;;;20.58;13.13;;;;;;;13.95;100.00;101466.88;5114919;28;20019;-71
2023/05/09 05:09:15;;;;;;;19.77;12.77;;;;;;;13.93;100.00;101452.94;5114466;28;20034;-72
2023/05/09 05:11:40;;;;;;;19.88;14.73;;;;;;;13.95;100.00;101448.50;5115005;28;20463;-71
2023/05/09 05:14:06;;;;;;;18.35;13.23;;;;;;;13.96;100.00;101445.88;5115152;28;20030;-71
2023/05/09 05:16:31;;;;;;;18.17;13.15;;;;;;;14.00;100.00;101444.88;5114120;28;20701;-71
2023/05/09 05:18:56;;;;;;;23.35;14.68;;;;;;;14.04;100.00;101440.41;5114834;28;20479;-71
2023/05/09 05:21:22;;;;;;;21.77;13.98;;;;;;;14.08;100.00;101443.78;5111793;28;20044;-71
2023/05/09 05:23:47;;;;;;;18.55;13.88;;;;;;;14.11;100.00;101444.56;5102290;28;20027;-71
2023/05/09 05:26:12;;;;;;;19.00;14.13;;;;;;;14.18;100.00;101442.63;5100112;28;20500;-71
2023/05/09 05:28:37;;;;;;;20.27;14.07;;;;;;;14.24;100.00;101431.97;5114510;28;20084;-72
2023/05/09 05:31:03;;;;;;;21.60;14.05;;;;;;;14.28;100.00;101429.19;5113962;28;20390;-71
2023/05/09 05:33:28;;;;;;;22.48;14.23;;;;;;;14.26;100.00;101419.66;5114618;28;20024;-71
2023/05/09 05:35:53;;;;;;;22.10;14.10;;;;;;;14.43;100.00;101430.50;5114621;28;20025;-72
2023/05/09 05:38:18;;;;;;;19.88;13.35;;;;;;;14.58;100.00;101423.09;5113790;28;20379;-71
2023/05/09 05:40:44;;;;;;;22.85;14.15;;;;;;;14.73;100.00;101427.88;5110141;28;20028;-72
2023/05/09 05:43:09;;;;;;;19.67;14.25;;;;;;;14.86;100.00;101428.34;5108294;28;20471;-71
2023/05/09 05:45:34;;;;;;;17.90;13.52;;;;;;;14.86;100.00;101412.59;5113829;27;20031;-71
2023/05/09 05:48:01;;;;;;;19.73;14.35;;;;;;;14.97;100.00;101423.59;5114265;28;20020;-71
2023/05/09 05:50:27;;;;;;;22.02;13.68;;;;;;;14.93;100.00;101419.38;5113956;28;20062;-71
2023/05/09 05:52:52;;;;;;;18.02;14.00;;;;;;;14.95;100.00;101417.56;5113359;28;20055;-71
2023/05/09 05:55:18;;;;;;;18.23;13.75;;;;;;;14.98;100.00;101418.31;5099938;28;20122;-71
2023/05/09 05:57:43;;;;;;;18.40;13.73;;;;;;;15.05;100.00;101415.50;5113946;28;20026;-72
2023/05/09 06:00:10;;;;;;;16.80;13.43;;;;;;;15.02;100.00;101405.94;5103290;28;20047;-73
2023/05/09 06:02:35;;;;;;;19.27;14.10;;;;;;;15.14;100.00;101402.03;5093922;28;20032;-71
2023/05/09 06:05:05;;;;;;;17.13;13.07;;;;;;;15.18;100.00;101404.53;5093322;28;20112;-71
2023/05/09 06:07:31;;;;;;;21.08;13.98;;;;;;;15.20;100.00;101405.34;5093080;28;20032;-71
2023/05/09 06:09:56;;;;;;;16.60;12.98;;;;;;;15.21;100.00;101400.94;5093171;28;20509;-71
2023/05/09 06:12:21;;;;;;;16.60;12.52;;;;;;;15.25;100.00;101399.94;5093745;28;20031;-71
2023/05/09 06:14:47;;;;;;;16.42;12.98;;;;;;;15.20;100.00;101386.97;5092488;28;20023;-71
2023/05/09 06:17:12;;;;;;;14.82;12.75;;;;;;;15.23;100.00;101384.19;5093287;28;20036;-71
2023/05/09 06:19:37;;;;;;;20.20;13.88;;;;;;;15.20;100.00;101379.09;5092119;28;20368;-72
2023/05/09 06:22:02;;;;;;;17.83;13.35;;;;;;;15.19;100.00;101377.34;5093479;28;20069;-71
2023/05/09 06:24:28;;;;;;;16.17;13.02;;;;;;;15.22;100.00;101379.88;5093434;28;20020;-71
2023/05/09 06:26:53;;;;;;;18.52;13.32;;;;;;;15.24;100.00;101387.72;5092343;28;20020;-71
2023/05/09 06:29:21;;;;;;;16.33;12.95;;;;;;;15.21;100.00;101390.44;5093310;28;20467;-71
2023/05/09 06:31:46;;;;;;;21.40;13.13;;;;;;;15.19;100.00;101382.59;5092975;28;20024;-71
2023/05/09 06:34:12;;;;;;;15.02;12.93;;;;;;;15.17;100.00;101373.03;5092401;28;20047;-71
2023/05/09 06:36:37;;;;;;;16.77;13.82;;;;;;;15.20;100.00;101381.72;5092576;28;20387;-71
2023/05/09 06:39:02;;;;;;;15.10;12.75;;;;;;;15.30;100.00;101384.00;5093269;28;20146;-72
2023/05/09 06:41:28;;;;;;;16.98;13.02;;;;;;;15.37;100.00;101380.28;5091583;28;20408;-71
2023/05/09 06:43:53;;;;;;;15.88;12.57;;;;;;;15.41;100.00;101374.84;5092756;28;20388;-71
2023/05/09 06:46:18;;;;;;;17.17;13.02;;;;;;;15.46;100.00;101374.66;5092954;28;20506;-71
2023/05/09 06:48:44;;;;;;;16.45;13.38;;;;;;;15.48;100.00;101369.38;5091742;28;20035;-71
2023/05/09 06:51:10;;;;;;;20.38;12.30;;;;;;;15.47;100.00;101350.13;5093026;28;20020;-71
2023/05/09 06:53:35;;;;;;;16.60;12.82;;;;;;;15.58;100.00;101358.47;5092828;28;20020;-71
2023/05/09 06:56:03;;;;;;;21.05;13.35;;;;;;;15.65;100.00;101362.59;5096017;28;20100;-71
2023/05/09 06:58:29;;;;;;;16.60;11.90;;;;;;;15.63;100.00;101361.81;5113011;28;20069;-72
2023/05/09 07:00:54;;;;;;;15.15;11.68;;;;;;;15.56;100.00;101349.78;5098348;28;20028;-72
2023/05/09 07:03:20;;;;;;;14.35;11.60;;;;;;;15.61;100.00;101355.72;5112319;28;20441;-71
2023/05/09 07:05:45;;;;;;;17.92;12.18;;;;;;;15.60;100.00;101354.03;5112918;28;20459;-72
2023/05/09 07:08:10;;;;;;;14.75;11.75;;;;;;;15.64;100.00;101346.88;5113257;28;20115;-71
2023/05/09 07:10:37;;;;;;;14.52;11.75;;;;;;;15.66;100.00;101353.84;5112337;28;20114;-71
2023/05/09 07:13:03;;;;;;;16.08;11.88;;;;;;;15.68;100.00;101348.50;5113009;28;20094;-71
2023/05/09 07:15:28;;;;;;;14.85;11.25;;;;;;;15.64;100.00;101342.47;5112799;28;20059;-71
2023/05/09 07:17:53;;;;;;;16.40;11.57;;;;;;;15.55;100.00;101342.81;5111931;28;20522;-72
2023/05/09 07:20:18;;;;;;;14.85;10.95;;;;;;;15.43;100.00;101344.13;5113134;28;20141;-71
2023/05/09 07:22:44;;;;;;;16.63;10.75;;;;;;;15.35;100.00;101340.03;5112811;28;20032;-72
2023/05/09 07:25:09;;;;;;;16.23;10.50;;;;;;;15.28;100.00;101346.44;5112183;28;20631;-71
2023/05/09 07:27:35;;;;;;;13.75;10.93;;;;;;;15.17;100.00;101342.41;5113091;28;20111;-71
2023/05/09 07:30:05;;;;;;;12.80;10.05;;;;;;;15.06;100.00;101334.03;5110953;28;20032;-71
2023/05/09 07:32:30;;;;;;;15.52;10.20;;;;;;;15.04;100.00;101348.13;5113005;28;20028;-72
2023/05/09 07:34:56;;;;;;;12.55;10.00;;;;;;;14.84;100.00;101340.91;5112528;28;20019;-72
2023/05/09 07:37:21;;;;;;;14.38;10.50;;;;;;;14.76;100.00;101338.53;5112219;28;20379;-71
2023/05/09 07:39:49;;;;;;;18.10;11.38;;;;;;;14.66;100.00;101340.63;5112079;28;20111;-72
2023/05/09 07:42:15;;;;;;;12.88;10.60;;;;;;;14.56;100.00;101343.59;5098938;28;20059;-71
2023/05/09 07:44:40;;;;;;;12.60;10.68;;;;;;;14.44;100.00;101332.53;5111550;28;20047;-72
2023/05/09 07:47:07;;;;;;;13.52;10.70;;;;;;;14.38;100.00;101335.34;5112707;28;20027;-72
2023/05/09 07:49:33;;;;;;;14.30;11.77;;;;;;;14.38;100.00;101331.88;5103472;28;20429;-71
2023/05/09 07:51:58;;;;;;;14.23;11.57;;;;;;;14.41;100.00;101331.78;5112519;28;20031;-71
2023/05/09 07:54:23;;;;;;;14.88;11.30;;;;;;;14.36;100.00;101331.94;5116825;28;20497;-71
2023/05/09 07:56:49;;;;;;;13.90;11.27;;;;;;;14.38;100.00;101330.09;5105457;28;20471;-72
2023/05/09 07:59:14;;;;;;;14.45;12.20;;;;;;;14.40;100.00;101325.69;5112395;28;20382;-72
2023/05/09 08:01:39;;;;;;;14.13;11.80;;;;;;;14.39;100.00;101310.00;5116466;28;20106;-72
2023/05/09 08:04:05;;;;;;;14.55;11.80;;;;;;;14.48;100.00;101309.69;5116363;27;20028;-72
2023/05/09 08:06:31;;;;;;;14.45;11.32;;;;;;;14.65;100.00;101306.53;5109238;28;20027;-72
2023/05/09 08:08:56;;;;;;;16.55;11.57;;;;;;;14.72;100.00;101295.81;5108560;28;20032;-72
2023/05/09 08:11:22;;;;;;;13.20;11.20;;;;;;;14.87;100.00;101302.28;5116300;28;20030;-72
2023/05/09 08:13:47;;;;;;;12.38;10.32;;;;;;;15.02;100.00;101293.03;5115147;28;20047;-72
2023/05/09 08:16:12;;;;;;;11.80;9.93;;;;;;;15.16;100.00;101293.41;5113508;27;20068;-72
2023/05/09 08:18:38;;;;;;;11.27;9.98;;;;;;;15.28;100.00;101279.00;5104136;28;20088;-72
2023/05/09 08:21:03;;;;;;;12.15;10.32;;;;;;;15.47;100.00;101292.31;5115461;28;20344;-73
2023/05/09 08:23:29;;;;;;;12.50;9.25;;;;;;;15.56;100.00;101288.47;5109759;28;20107;-72
2023/05/09 08:25:55;;;;;;;10.05;8.98;;;;;;;15.50;100.00;101279.06;5107775;28;20023;-72
2023/05/09 08:28:23;;;;;;;11.48;8.93;;;;;;;15.42;100.00;101276.72;5115132;28;20486;-72
2023/05/09 08:30:52;;;;;;;9.90;8.90;;;;;;;15.19;100.00;101261.78;5115542;28;20104;-72
2023/05/09 08:33:17;;;;;;;11.43;9.18;;;;;;;15.27;100.00;101273.78;5100621;28;20032;-72
2023/05/09 08:35:43;;;;;;;14.70;9.90;;;;;;;15.22;100.00;101255.56;5115810;28;20016;-72
2023/05/09 08:38:08;;;;;;;12.50;9.70;;;;;;;15.06;100.00;101263.13;5115558;28;20497;-72
2023/05/09 08:40:36;;;;;;;11.60;10.35;;;;;;;14.97;100.00;101268.69;5114451;28;20028;-72
2023/05/09 08:43:10;;;;;;;11.73;10.18;;;;;;;14.91;100.00;101259.28;5108437;28;20106;-72
2023/05/09 08:45:44;;;;;;;12.23;10.38;;;;;;;15.01;100.00;101251.06;5115973;28;20016;-72
2023/05/09 08:48:10;;;;;;;13.85;10.90;;;;;;;14.98;100.00;101262.56;5115038;28;20409;-72
2023/05/09 08:50:36;;;;;;;12.45;10.88;;;;;;;14.99;100.00;101262.50;5115606;28;20054;-72
2023/05/09 08:53:02;;;;;;;12.35;9.35;;;;;;;14.87;100.00;101262.06;5115286;28;20474;-72
2023/05/09 08:55:28;;;;;;;12.80;9.90;;;;;;;14.89;100.00;101255.00;5114731;28;20106;-72
2023/05/09 08:57:53;;;;;;;12.50;9.00;;;;;;;14.83;100.00;101260.47;5100638;28;20020;-73
2023/05/09 09:00:19;;;;;;;10.48;9.38;;;;;;;14.79;100.00;101249.22;5114984;28;20474;-72
2023/05/09 09:02:45;;;;;;;13.02;9.65;;;;;;;14.77;100.00;101248.41;5114389;28;20038;-72
2023/05/09 09:05:10;;;;;;;12.35;9.40;;;;;;;14.79;100.00;101254.47;5115184;28;20024;-73
2023/05/09 09:07:38;;;;;;;12.57;8.90;;;;;;;14.82;100.00;101248.25;5115100;28;20055;-73
2023/05/09 09:10:04;;;;;;;12.90;8.98;;;;;;;14.80;100.00;101247.44;5114569;28;20030;-73
2023/05/09 09:12:30;;;;;;;8.70;7.80;;;;;;;14.78;100.00;101249.25;5115087;28;20577;-73
2023/05/09 09:15:01;;;;;;;11.02;7.80;;;;;;;14.71;100.00;101244.25;5114948;28;20110;-73
2023/05/09 09:17:29;;;;;;;10.80;7.88;;;;;;;14.54;100.00;101246.56;5114288;28;20126;-74
2023/05/09 09:19:58;;;;;;;8.05;7.03;;;;;;;14.42;100.00;101241.66;5110010;28;20116;-75
2023/05/09 09:22:31;;;;;;;12.35;7.88;;;;;;;14.39;100.00;101236.56;5105466;28;20024;-75
2023/05/09 09:24:58;;;;;;;13.65;8.20;;;;;;;14.55;100.00;101243.03;5110069;28;20031;-74
2023/05/09 09:27:23;;;;;;;10.93;8.68;;;;;;;14.67;100.00;101236.50;5105251;28;20118;-75
2023/05/09 09:29:48;;;;;;;11.48;8.60;;;;;;;14.70;100.00;101229.38;5113758;28;20118;-75
2023/05/09 09:32:14;;;;;;;12.45;8.20;;;;;;;14.80;100.00;101235.16;5114772;28;20027;-76
2023/05/09 09:34:39;;;;;;;9.40;7.22;;;;;;;14.87;100.00;101222.69;5100146;28;20387;-76
2023/05/09 09:37:05;;;;;;;8.38;6.75;;;;;;;14.82;100.00;101217.63;5114174;28;20016;-75
2023/05/09 09:39:30;;;;;;;8.75;6.47;;;;;;;14.89;100.00;101220.88;5114414;28;20471;-75
2023/05/09 09:42:10;;;;;;;8.88;6.45;;;;;;;14.89;100.00;101221.72;5106963;28;20035;-74
2023/05/09 09:44:35;;;;;;;8.18;6.88;;;;;;;14.95;100.00;101218.03;5113850;27;20091;-76
2023/05/09 09:47:01;;;;;;;10.38;6.63;;;;;;;14.98;100.00;101216.16;5113997;28;20023;-75
2023/05/09 09:49:26;;;;;;;9.25;6.75;;;;;;;14.93;100.00;101214.59;5114539;28;20028;-75
2023/05/09 09:51:54;;;;;;;8.90;7.13;;;;;;;14.94;100.00;101217.19;5113355;28;20384;-75
2023/05/09 09:54:20;;;;;;;12.32;7.50;;;;;;;14.90;100.00;101210.31;5114580;28;20020;-75
2023/05/09 09:56:53;;;;;;;10.02;7.90;;;;;;;14.89;100.00;101205.97;5109864;28;20494;-75
2023/05/09 09:59:26;;;;;;;8.40;7.50;;;;;;;14.86;100.00;101208.72;5113575;28;20046;-75
2023/05/09 10:02:03;;;;;;;10.98;7.45;;;;;;;14.85;100.00;101209.63;5114164;28;20098;-77
2023/05/09 10:04:33;;;;;;;8.75;7.57;;;;;;;14.85;100.00;101209.63;5114236;28;20020;-77
2023/05/09 10:07:04;;;;;;;11.05;8.50;;;;;;;14.86;100.00;101198.22;5113511;28;20011;-76
2023/05/09 10:09:31;;;;;;;13.98;7.85;;;;;;;14.84;100.00;101196.53;5113852;28;20033;-76
2023/05/09 10:12:01;;;;;;;13.07;8.55;;;;;;;14.82;100.00;101196.63;5112242;28;20027;-77
2023/05/09 10:14:29;;;;;;;10.52;8.10;;;;;;;14.85;100.00;101196.50;5114013;28;20046;-76
2023/05/09 10:16:56;;;;;;;11.82;8.23;;;;;;;14.80;100.00;101198.44;5113378;28;20116;-76
2023/05/09 10:19:23;;;;;;;9.55;8.30;;;;;;;14.80;100.00;101193.19;5112867;28;20062;-76
2023/05/09 10:21:55;;;;;;;10.57;8.43;;;;;;;14.70;100.00;101191.78;5113293;28;20031;-76
2023/05/09 10:24:32;;;;;;;10.45;8.02;;;;;;;14.66;100.00;101192.81;5113969;28;20115;-76
2023/05/09 10:27:03;;;;;;;9.77;8.48;;;;;;;14.52;100.00;101181.03;5112593;28;20424;-76
2023/05/09 10:29:31;;;;;;;11.95;9.20;;;;;;;14.55;100.00;101185.31;5113510;28;20023;-76
2023/05/09 10:31:58;;;;;;;14.30;9.13;;;;;;;14.52;100.00;101181.03;5113011;28;20028;-76
2023/05/09 10:34:29;;;;;;;11.75;9.27;;;;;;;14.46;100.00;101190.84;5112954;28;20023;-77
2023/05/09 10:36:56;;;;;;;12.50;9.15;;;;;;;14.48;100.00;101179.38;5113329;28;20011;-76
2023/05/09 10:39:22;;;;;;;15.00;10.25;;;;;;;14.52;100.00;101180.19;5113580;28;20031;-76
2023/05/09 10:41:48;;;;;;;13.00;10.10;;;;;;;14.55;100.00;101174.81;5105528;28;20493;-77
2023/05/09 10:44:15;;;;;;;12.27;9.48;;;;;;;14.55;100.00;101174.81;5113528;28;20023;-77
2023/05/09 10:46:40;;;;;;;13.52;9.50;;;;;;;14.55;100.00;101169.59;5113412;28;20015;-77
2023/05/09 10:49:06;;;;;;;13.52;10.52;;;;;;;14.62;100.00;101164.97;5112655;28;20047;-77
2023/05/09 10:51:32;;;;;;;10.85;9.32;;;;;;;14.60;100.00;101167.63;5099967;28;20466;-77
2023/05/09 10:53:57;;;;;;;14.73;9.45;;;;;;;14.62;100.00;101163.19;5111603;28;20032;-76
2023/05/09 10:56:38;;;;;;;14.20;10.35;;;;;;;14.61;100.00;101156.22;5109092;28;20360;-77
2023/05/09 10:59:04;;;;;;;11.77;8.65;;;;;;;14.44;100.00;101155.94;5113282;28;20080;-77
2023/05/09 11:01:38;;;;;;;13.15;9.35;;;;;;;14.39;100.00;101158.72;5112563;28;20027;-77
2023/05/09 11:04:13;;;;;;;12.85;9.40;;;;;;;14.23;100.00;101147.88;5098448;28;20024;-77